Time;durP1;ratioP1;P1;durP2;ratioP2;P2;SDS_P1;SDS_P2;PMS_P1;PMS_P2;Temp;Humidity;BMP_temperature;BMP_pressure;BME280_temperature;BME280_humidity;BME280_pressure;Samples;Min_cycle;Max_cycle;Signal;HPM_P1;HPM_P2
2022/06/22 00:00:21;;;;;;;;;8.33;7.00;;;;;18.02;60.24;101434.97;5030791;28;8919;-67
2022/06/22 00:02:53;;;;;;;;;7.00;7.00;;;;;17.97;60.08;101429.38;5018878;28;9141;-67
2022/06/22 00:05:35;;;;;;;;;7.33;7.00;;;;;17.94;60.21;101414.31;5014097;28;9017;-67
2022/06/22 00:08:06;;;;;;;;;3.50;3.50;;;;;17.93;60.39;101417.28;5031129;28;8981;-67
2022/06/22 00:10:45;;;;;;;;;6.00;6.00;;;;;17.88;60.43;101412.50;5031574;28;8829;-67
2022/06/22 00:13:20;;;;;;;;;8.00;8.00;;;;;17.81;60.49;101425.38;5019353;28;9220;-67
2022/06/22 00:15:50;;;;;;;;;6.00;6.00;;;;;17.76;60.84;101417.91;5030489;28;9153;-67
2022/06/22 00:18:40;;;;;;;;;5.67;5.67;;;;;17.72;60.96;101424.81;5030499;28;9120;-67
2022/06/22 00:21:29;;;;;;;;;7.00;6.00;;;;;17.68;60.73;101434.50;5031465;28;9227;-67
2022/06/22 00:23:59;;;;;;;;;10.00;7.00;;;;;17.65;61.02;101437.69;5028384;28;9690;-67
2022/06/22 00:26:32;;;;;;;;;4.33;4.33;;;;;17.62;61.30;101437.28;5031001;28;9153;-67
2022/06/22 00:29:04;;;;;;;;;9.00;9.00;;;;;17.58;61.30;101439.63;5031174;28;9123;-67
2022/06/22 00:31:39;;;;;;;;;9.33;7.67;;;;;17.57;61.50;101448.03;5022166;28;9367;-67
2022/06/22 00:34:09;;;;;;;;;8.67;7.00;;;;;17.54;61.65;101442.00;5021895;28;9070;-67
2022/06/22 00:36:47;;;;;;;;;7.67;7.67;;;;;17.53;61.61;101447.66;5023104;28;9229;-67
2022/06/22 00:39:28;;;;;;;;;6.33;6.00;;;;;17.51;61.47;101449.78;5022753;28;9144;-67
2022/06/22 00:42:01;;;;;;;;;11.00;9.33;;;;;17.50;61.54;101450.81;5030774;28;9158;-67
2022/06/22 00:44:33;;;;;;;;;7.33;6.67;;;;;17.47;61.55;101454.84;5031033;28;9168;-67
2022/06/22 00:47:07;;;;;;;;;8.33;8.33;;;;;17.41;61.64;101449.44;5020451;28;9277;-67
2022/06/22 00:49:35;;;;;;;;;11.67;9.33;;;;;17.34;61.77;101452.25;5011592;28;10016;-67
2022/06/22 00:52:08;;;;;;;;;8.67;8.33;;;;;17.32;61.99;101451.63;5022301;28;9321;-67
2022/06/22 00:54:36;;;;;;;;;7.67;7.67;;;;;17.26;62.15;101449.81;5027810;28;9295;-67
2022/06/22 00:57:07;;;;;;;;;12.00;10.67;;;;;17.23;62.28;101447.53;5021609;28;9376;-67
2022/06/22 00:59:40;;;;;;;;;9.33;9.33;;;;;17.20;62.44;101442.53;5030605;28;9321;-67
2022/06/22 01:02:23;;;;;;;;;10.67;10.67;;;;;17.15;62.60;101440.50;5030444;28;9303;-67
2022/06/22 01:05:15;;;;;;;;;10.67;9.33;;;;;17.11;62.19;101439.28;5029815;28;9309;-67
2022/06/22 01:08:02;;;;;;;;;9.00;9.00;;;;;17.06;62.39;101439.13;5010562;28;9284;-67
2022/06/22 01:10:42;;;;;;;;;8.00;6.67;;;;;17.05;62.43;101443.72;5023124;28;9282;-67
2022/06/22 01:13:29;;;;;;;;;10.00;8.67;;;;;17.03;62.65;101440.38;5025707;28;9223;-67
2022/06/22 01:16:08;;;;;;;;;6.67;6.67;;;;;17.02;62.72;101436.00;5023437;28;9377;-67
2022/06/22 01:18:40;;;;;;;;;11.67;7.33;;;;;16.97;62.72;101441.25;5029752;28;9368;-67
2022/06/22 01:21:15;;;;;;;;;10.33;8.67;;;;;16.93;62.50;101437.31;5030528;28;9343;-67
2022/06/22 01:23:48;;;;;;;;;8.00;7.00;;;;;16.89;62.68;101432.53;5028826;28;9462;-67
2022/06/22 01:26:36;;;;;;;;;8.00;7.00;;;;;16.86;62.58;101433.84;5026589;28;9222;-67
2022/06/22 01:29:16;;;;;;;;;11.33;9.67;;;;;16.85;62.98;101428.59;5030393;28;10255;-67
2022/06/22 01:32:04;;;;;;;;;7.33;6.00;;;;;16.83;62.72;101428.00;5030243;28;9294;-67
2022/06/22 01:34:37;;;;;;;;;9.33;7.33;;;;;16.81;62.87;101428.22;5026990;28;9244;-67
2022/06/22 01:37:06;;;;;;;;;10.00;9.00;;;;;16.77;62.74;101427.84;5028858;28;9313;-67
2022/06/22 01:39:33;;;;;;;;;9.33;9.33;;;;;16.78;63.28;101431.41;5021867;28;9136;-67
2022/06/22 01:42:13;;;;;;;;;6.00;6.00;;;;;16.78;63.00;101424.06;5029766;28;9449;-67
2022/06/22 01:44:49;;;;;;;;;9.67;8.67;;;;;16.81;62.84;101428.22;5021026;28;9257;-67
2022/06/22 01:47:41;;;;;;;;;7.00;7.00;;;;;16.79;63.03;101423.00;5028911;28;9347;-67
2022/06/22 01:50:34;;;;;;;;;10.50;8.75;;;;;16.75;62.84;101424.50;5029987;28;9358;-67
2022/06/22 01:53:24;;;;;;;;;7.33;6.33;;;;;16.73;62.97;101425.75;5011475;28;9451;-66
2022/06/22 01:56:14;;;;;;;;;9.33;9.33;;;;;16.72;62.94;101421.34;5022742;28;9218;-66
2022/06/22 01:58:59;;;;;;;;;8.33;6.00;;;;;16.69;63.31;101422.66;5020657;28;9320;-66
2022/06/22 02:01:48;;;;;;;;;8.00;8.00;;;;;16.70;62.96;101415.31;5012388;28;9383;-66
2022/06/22 02:04:33;;;;;;;;;8.00;6.67;;;;;16.71;63.06;101408.81;5012108;28;9168;-66
2022/06/22 02:07:44;;;;;;;;;8.33;7.00;;;;;16.73;63.49;101415.75;5020092;28;9146;-67
2022/06/22 02:10:37;;;;;;;;;9.00;9.00;;;;;16.77;63.10;101416.13;5030558;28;9273;-67
2022/06/22 02:13:24;;;;;;;;;7.00;7.00;;;;;16.75;63.00;101420.97;5027179;28;9285;-67
2022/06/22 02:15:59;;;;;;;;;9.67;9.67;;;;;16.72;63.52;101435.78;5027691;28;10128;-67
2022/06/22 02:18:38;;;;;;;;;7.33;7.33;;;;;16.69;63.46;101443.53;5031062;28;9321;-67
2022/06/22 02:21:17;;;;;;;;;8.67;8.67;;;;;16.66;63.65;101452.16;5031373;28;9319;-66
2022/06/22 02:24:06;;;;;;;;;12.67;9.67;;;;;16.60;63.71;101447.59;5029863;28;9305;-66
2022/06/22 02:26:52;;;;;;;;;13.00;11.33;;;;;16.54;63.56;101441.16;5028395;28;9299;-67
2022/06/22 02:29:23;;;;;;;;;14.00;12.00;;;;;16.46;63.87;101442.25;5017793;28;9383;-66
2022/06/22 02:31:54;;;;;;;;;12.00;9.33;;;;;16.39;63.93;101452.31;5030623;28;9439;-67
2022/06/22 02:34:20;;;;;;;;;7.33;7.33;;;;;16.35;63.92;101445.66;5032056;28;9248;-66
2022/06/22 02:36:51;;;;;;;;;9.33;6.67;;;;;16.32;63.81;101441.47;5029761;28;9320;-67
2022/06/22 02:39:20;;;;;;;;;10.67;10.33;;;;;16.31;63.99;101438.97;5034990;28;9227;-67
2022/06/22 02:44:37;;;;;;;;;9.67;9.00;;;;;16.27;64.07;101426.88;5035037;28;9389;-66
2022/06/22 02:47:15;;;;;;;;;10.33;8.00;;;;;16.24;64.10;101428.13;5016238;28;9374;-66
2022/06/22 02:49:49;;;;;;;;;10.50;10.00;;;;;16.20;64.04;101415.22;5026599;28;9451;-66
2022/06/22 02:52:17;;;;;;;;;10.67;9.33;;;;;16.15;64.10;101406.88;5033291;28;9474;-66
2022/06/22 02:54:54;;;;;;;;;10.00;9.33;;;;;16.10;64.21;101402.13;5015551;28;9238;-66
2022/06/22 02:57:29;;;;;;;;;10.33;9.33;;;;;16.07;64.10;101413.41;5033631;28;9378;-66
2022/06/22 02:59:58;;;;;;;;;11.50;11.50;;;;;16.04;64.56;101417.41;5022550;28;9436;-64
2022/06/22 03:02:25;;;;;;;;;8.75;8.50;;;;;16.03;63.98;101402.13;5032411;28;9442;-66
2022/06/22 03:04:57;;;;;;;;;11.00;10.00;;;;;16.01;64.19;101385.25;5034063;28;9632;-66
2022/06/22 03:07:25;;;;;;;;;12.50;11.25;;;;;16.00;64.17;101382.72;5025619;28;9301;-66
2022/06/22 03:09:52;;;;;;;;;11.75;10.25;;;;;15.97;64.08;101383.19;5034548;28;9580;-66
2022/06/22 03:12:19;;;;;;;;;12.25;9.50;;;;;15.93;64.41;101376.50;5033608;28;10202;-65
2022/06/22 03:14:59;;;;;;;;;10.67;9.33;;;;;15.91;64.32;101374.00;5034476;28;9671;-65
2022/06/22 03:17:38;;;;;;;;;11.67;11.67;;;;;15.90;64.49;101372.34;5014415;28;9441;-65
2022/06/22 03:20:09;;;;;;;;;8.25;8.25;;;;;15.89;64.54;101375.28;5008814;28;9396;-65
2022/06/22 03:22:42;;;;;;;;;9.00;9.00;;;;;15.88;64.68;101363.59;5026277;28;9435;-65
2022/06/22 03:25:21;;;;;;;;;9.75;9.75;;;;;15.89;64.74;101351.69;5019466;28;9375;-66
2022/06/22 03:27:52;;;;;;;;;8.00;8.00;;;;;15.90;65.16;101355.22;5033476;28;10577;-66
2022/06/22 03:30:27;;;;;;;;;10.25;9.75;;;;;15.89;64.90;101348.13;5032903;28;9378;-66
2022/06/22 03:33:11;;;;;;;;;10.33;10.33;;;;;15.91;65.25;101346.84;5014152;28;9462;-66
2022/06/22 03:35:52;;;;;;;;;9.00;9.00;;;;;15.95;65.32;101339.09;5019543;28;10203;-66
2022/06/22 03:38:24;;;;;;;;;8.00;8.00;;;;;15.98;65.57;101335.97;5033124;28;9436;-65
2022/06/22 03:40:55;;;;;;;;;7.50;7.50;;;;;16.01;65.57;101341.78;5033130;28;9382;-66
2022/06/22 03:43:35;;;;;;;;;9.50;8.50;;;;;16.05;65.49;101351.16;5032412;28;9491;-65
2022/06/22 03:46:11;;;;;;;;;9.50;9.50;;;;;16.06;65.60;101350.09;5027312;28;9472;-66
2022/06/22 03:48:47;;;;;;;;;12.67;10.67;;;;;16.06;65.64;101352.81;5030532;28;9488;-66
2022/06/22 03:51:21;;;;;;;;;8.50;7.25;;;;;16.05;66.12;101356.59;5012703;28;10019;-66
2022/06/22 03:54:00;;;;;;;;;9.67;9.67;;;;;16.05;66.10;101366.63;5012573;28;10074;-66
2022/06/22 03:56:32;;;;;;;;;10.50;10.50;;;;;16.04;65.74;101373.94;5023893;28;9305;-66
2022/06/22 03:59:01;;;;;;;;;8.00;8.00;;;;;16.03;66.01;101382.28;5022205;28;9443;-66
2022/06/22 04:01:28;;;;;;;;;10.00;9.33;;;;;16.01;65.89;101376.25;5023935;28;10096;-66
2022/06/22 04:03:56;;;;;;;;;8.33;8.00;;;;;16.00;66.12;101382.72;5012306;28;9394;-65
2022/06/22 04:06:52;;;;;;;;;9.00;9.00;;;;;16.02;65.92;101378.75;5024118;28;9281;-66
2022/06/22 04:09:22;;;;;;;;;6.33;6.33;;;;;16.33;65.91;101382.56;5025797;28;9307;-66
2022/06/22 04:12:09;;;;;;;;;8.00;8.00;;;;;16.47;64.63;101388.72;5026402;28;9452;-67
2022/06/22 04:14:48;;;;;;;;;11.67;9.00;;;;;16.46;64.57;101390.59;5024403;28;9307;-65
2022/06/22 04:17:24;;;;;;;;;10.00;9.00;;;;;16.37;64.84;101399.25;5031898;28;9333;-65
2022/06/22 04:20:02;;;;;;;;;9.00;8.33;;;;;16.30;65.11;101388.41;5025077;28;9309;-65
2022/06/22 04:22:31;;;;;;;;;12.00;11.33;;;;;16.22;65.11;101388.69;5033358;28;9381;-65
2022/06/22 04:25:04;;;;;;;;;9.00;8.67;;;;;16.18;65.43;101401.03;5032429;28;9383;-65
2022/06/22 04:27:35;;;;;;;;;9.00;8.33;;;;;16.13;65.33;101388.09;5022518;28;9370;-65
2022/06/22 04:30:10;;;;;;;;;7.00;6.67;;;;;16.12;65.80;101391.84;5032295;28;9314;-64
2022/06/22 04:32:39;;;;;;;;;7.33;7.00;;;;;16.11;65.80;101390.19;5030679;28;9366;-64
2022/06/22 04:35:40;;;;;;;;;9.00;7.25;;;;;16.15;65.78;101390.59;5024483;28;9317;-65
2022/06/22 04:38:23;;;;;;;;;3.67;3.67;;;;;16.19;65.37;101398.09;5031919;28;9442;-66
2022/06/22 04:41:08;;;;;;;;;6.33;6.33;;;;;16.23;65.78;101399.31;5029058;28;10144;-66
2022/06/22 04:43:36;;;;;;;;;6.33;5.33;;;;;16.28;65.47;101394.06;5011269;28;9451;-66
2022/06/22 04:46:07;;;;;;;;;7.00;7.00;;;;;16.32;65.44;101398.00;5019533;28;9248;-66
2022/06/22 04:48:46;;;;;;;;;7.33;5.67;;;;;16.37;65.09;101397.38;5020942;28;9312;-66
2022/06/22 04:51:20;;;;;;;;;6.33;6.33;;;;;16.42;65.30;101391.28;5016547;28;9199;-66
2022/06/22 04:53:55;;;;;;;;;7.00;5.67;;;;;16.45;65.21;101393.56;5011349;28;9056;-66
2022/06/22 04:56:31;;;;;;;;;6.67;4.33;;;;;16.47;65.20;101391.44;5022576;28;9167;-65
2022/06/22 04:58:59;;;;;;;;;6.67;6.67;;;;;16.51;64.98;101389.94;5030171;28;9091;-65
2022/06/22 05:01:32;;;;;;;;;5.00;5.00;;;;;16.53;64.95;101396.84;5030915;28;9241;-65
2022/06/22 05:04:05;;;;;;;;;3.67;3.67;;;;;16.58;64.80;101407.03;5012652;28;8997;-65
2022/06/22 05:06:54;;;;;;;;;2.67;2.67;;;;;16.61;64.68;101403.03;5025551;28;9012;-65
2022/06/22 05:09:28;;;;;;;;;8.00;7.00;;;;;16.65;64.61;101413.28;5032172;28;9059;-67
2022/06/22 05:11:55;;;;;;;;;3.00;2.00;;;;;16.70;64.82;101415.31;5031108;28;9153;-65
2022/06/22 05:14:26;;;;;;;;;4.33;2.33;;;;;16.73;64.73;101404.00;5031030;28;8929;-66
2022/06/22 05:16:58;;;;;;;;;5.00;5.00;;;;;16.77;64.34;101407.97;5023474;28;9008;-66
2022/06/22 05:19:35;;;;;;;;;3.67;3.67;;;;;16.79;64.00;101403.97;5026982;28;9774;-65
2022/06/22 05:22:12;;;;;;;;;3.00;3.00;;;;;16.83;64.13;101412.53;5023058;28;9024;-66
2022/06/22 05:24:44;;;;;;;;;4.00;2.00;;;;;16.80;63.96;101421.13;5017048;28;9027;-66
2022/06/22 05:27:19;;;;;;;;;3.00;3.00;;;;;16.83;63.44;101423.41;5021858;28;8931;-66
2022/06/22 05:29:51;;;;;;;;;7.00;7.00;;;;;16.87;63.00;101426.50;5024448;28;8934;-66
2022/06/22 05:32:27;;;;;;;;;4.00;4.00;;;;;16.95;62.83;101420.78;5025097;28;9235;-66
2022/06/22 05:34:56;;;;;;;;;3.00;2.75;;;;;17.15;62.53;101434.22;5019974;28;9699;-65
2022/06/22 05:37:28;;;;;;;;;3.00;3.00;;;;;17.44;61.14;101432.69;5031028;28;8911;-66
2022/06/22 05:39:57;;;;;;;;;3.00;3.00;;;;;17.76;60.72;101433.41;5031576;28;8911;-66
2022/06/22 05:42:25;;;;;;;;;5.25;5.25;;;;;18.05;59.15;101437.22;5027735;28;8904;-65
2022/06/22 05:44:53;;;;;;;;;3.75;3.75;;;;;18.24;58.88;101433.41;5031532;28;8868;-65
2022/06/22 05:47:29;;;;;;;;;4.25;4.25;;;;;18.45;57.47;101439.41;5031098;28;8859;-65
2022/06/22 05:50:07;;;;;;;;;3.00;3.00;;;;;18.53;56.95;101441.81;5019776;28;8819;-66
2022/06/22 05:52:40;;;;;;;;;3.50;3.00;;;;;18.60;56.46;101442.56;5025257;28;9560;-66
2022/06/22 05:55:22;;;;;;;;;2.75;2.50;;;;;18.67;56.17;101446.00;5026108;28;8837;-66
2022/06/22 05:57:58;;;;;;;;;2.50;2.50;;;;;18.80;56.26;101438.69;5029647;28;8944;-67
2022/06/22 06:00:35;;;;;;;;;2.75;2.75;;;;;18.87;55.74;101433.97;5026244;28;8881;-67
2022/06/22 06:03:38;;;;;;;;;2.50;2.50;;;;;18.87;55.39;101437.53;5027916;28;8821;-66
2022/06/22 06:06:12;;;;;;;;;3.25;3.25;;;;;18.86;55.42;101441.31;5026239;28;8850;-66
2022/06/22 06:08:49;;;;;;;;;3.00;3.00;;;;;18.85;55.83;101445.13;5052953;28;8812;-66
2022/06/22 06:11:23;;;;;;;;;3.25;3.25;;;;;18.84;55.82;101443.47;5045628;28;8818;-66
2022/06/22 06:13:59;;;;;;;;;5.00;5.00;;;;;18.84;55.05;101453.53;5031188;28;8881;-65
2022/06/22 06:16:28;;;;;;;;;3.25;3.25;;;;;18.78;55.31;101452.56;5035477;28;8871;-66
2022/06/22 06:19:00;;;;;;;;;3.25;3.25;;;;;18.78;55.48;101458.84;5034136;28;8964;-64
2022/06/22 06:21:33;;;;;;;;;3.75;3.75;;;;;18.77;55.77;101453.66;5030595;28;8813;-65
2022/06/22 06:24:16;;;;;;;;;5.00;5.00;;;;;18.78;55.48;101461.59;5036752;28;8841;-65
2022/06/22 06:29:45;;;;;;;;;6.50;6.25;;;;;18.69;56.06;101459.41;5026939;28;8828;-65
2022/06/22 06:32:20;;;;;;;;;7.25;6.25;;;;;18.65;56.14;101459.03;5036747;28;8825;-65
2022/06/22 06:34:56;;;;;;;;;7.25;7.25;;;;;18.58;55.47;101452.84;5019712;28;8819;-66
2022/06/22 06:37:41;;;;;;;;;4.00;4.00;;;;;18.49;55.92;101456.97;5026743;28;8827;-66
2022/06/22 06:40:31;;;;;;;;;6.25;6.25;;;;;18.46;55.71;101460.16;5035402;28;8841;-66
2022/06/22 06:43:18;;;;;;;;;3.00;3.00;;;;;18.47;55.78;101459.09;5027059;28;9614;-66
2022/06/22 06:45:45;;;;;;;;;3.00;3.00;;;;;18.50;56.04;101450.44;5035761;28;8821;-66
2022/06/22 06:48:23;;;;;;;;;6.75;6.75;;;;;18.51;56.07;101460.28;5036000;28;8836;-64
2022/06/22 06:50:54;;;;;;;;;8.75;7.00;;;;;18.52;56.14;101459.25;5034882;28;9583;-66
2022/06/22 06:53:39;;;;;;;;;8.50;8.00;;;;;18.47;56.59;101457.22;5036344;28;8832;-66
2022/06/22 06:56:25;;;;;;;;;4.50;4.25;;;;;18.46;56.32;101454.69;5034402;28;8834;-65
2022/06/22 06:58:55;;;;;;;;;3.75;3.75;;;;;18.53;56.01;101452.72;5028533;28;8825;-65
2022/06/22 07:01:24;;;;;;;;;4.25;4.25;;;;;18.57;56.25;101458.53;5034730;28;8817;-66
2022/06/22 07:03:57;;;;;;;;;5.00;5.00;;;;;18.61;56.48;101457.03;5023682;28;8980;-65
2022/06/22 07:06:23;;;;;;;;;6.50;6.00;;;;;18.63;56.45;101457.59;5028319;28;8826;-65
2022/06/22 07:09:09;;;;;;;;;7.00;7.00;;;;;18.60;56.97;101444.47;5035655;28;8817;-66
2022/06/22 07:11:48;;;;;;;;;7.25;7.25;;;;;18.60;57.49;101439.00;5034621;28;8834;-65
2022/06/22 07:14:53;;;;;;;;;9.50;8.50;;;;;18.64;57.68;101435.56;5025861;28;9584;-65
2022/06/22 07:17:23;;;;;;;;;12.00;12.00;;;;;18.67;58.11;101434.25;5015513;28;8833;-66
2022/06/22 07:19:53;;;;;;;;;12.25;11.25;;;;;18.70;58.67;101437.38;5015978;28;8995;-65
2022/06/22 07:22:37;;;;;;;;;14.75;13.25;;;;;18.67;59.26;101431.53;5027178;28;8865;-65
2022/06/22 07:25:25;;;;;;;;;8.00;8.00;;;;;18.68;59.45;101423.13;5024473;28;8941;-66
2022/06/22 07:28:10;;;;;;;;;16.33;13.67;;;;;18.68;59.84;101422.31;5024636;28;8818;-66
2022/06/22 07:30:53;;;;;;;;;13.67;13.67;;;;;18.69;59.75;101416.59;5026135;28;9028;-65
2022/06/22 07:33:31;;;;;;;;;10.25;10.25;;;;;18.72;59.94;101418.91;5032262;28;9094;-66
2022/06/22 07:36:18;;;;;;;;;14.33;12.00;;;;;18.72;59.92;101423.53;5031779;28;8862;-65
2022/06/22 07:39:10;;;;;;;;;10.67;8.00;;;;;18.75;59.32;101423.03;5031117;28;9053;-65
2022/06/22 07:41:37;;;;;;;;;7.00;6.50;;;;;18.74;58.87;101422.22;5031365;28;8909;-65
2022/06/22 07:44:25;;;;;;;;;9.50;8.00;;;;;18.78;58.27;101417.13;5029504;28;8817;-65
2022/06/22 07:47:08;;;;;;;;;11.00;8.75;;;;;18.84;58.02;101421.66;5026092;28;8834;-65
2022/06/22 07:49:59;;;;;;;;;7.75;6.50;;;;;18.85;58.08;101422.47;5030253;28;8821;-65
2022/06/22 07:52:47;;;;;;;;;9.50;8.00;;;;;18.86;58.02;101421.41;5029284;28;8798;-67
2022/06/22 07:55:28;;;;;;;;;13.25;13.00;;;;;18.93;57.67;101419.41;5030649;28;8817;-65
2022/06/22 07:58:13;;;;;;;;;8.25;6.25;;;;;18.97;57.59;101428.78;5025680;28;8825;-64
2022/06/22 08:00:41;;;;;;;;;7.00;7.00;;;;;18.97;57.08;101426.06;5029689;28;8801;-67
2022/06/22 08:03:33;;;;;;;;;7.25;7.00;;;;;18.99;55.96;101434.81;5027164;28;8886;-66
2022/06/22 08:06:06;;;;;;;;;6.75;6.25;;;;;19.00;55.89;101437.34;5021444;28;8900;-67
2022/06/22 08:08:57;;;;;;;;;8.00;5.75;;;;;19.05;54.95;101436.63;5030845;28;8849;-66
2022/06/22 08:11:33;;;;;;;;;6.25;6.25;;;;;19.00;54.58;101434.59;5020989;28;8919;-67
2022/06/22 08:14:25;;;;;;;;;4.00;3.75;;;;;19.03;55.13;101436.84;5021803;28;8825;-66
2022/06/22 08:17:00;;;;;;;;;3.50;3.50;;;;;19.07;54.99;101430.91;5025002;28;8817;-65
2022/06/22 08:19:29;;;;;;;;;5.75;5.75;;;;;19.11;54.41;101426.66;5022832;28;8884;-67
2022/06/22 08:22:00;;;;;;;;;6.75;6.00;;;;;19.06;54.66;101432.81;5030142;28;8916;-65
2022/06/22 08:24:32;;;;;;;;;10.75;8.75;;;;;19.12;54.32;101425.56;5030129;28;8922;-65
2022/06/22 08:27:04;;;;;;;;;7.00;7.00;;;;;19.14;54.70;101428.91;5020317;28;8859;-66
2022/06/22 08:29:32;;;;;;;;;4.25;4.25;;;;;19.15;54.72;101436.03;5027903;28;8833;-66
2022/06/22 08:32:16;;;;;;;;;3.50;3.50;;;;;19.09;54.85;101437.81;5027047;28;9872;-66
2022/06/22 08:35:26;;;;;;;;;7.00;6.75;;;;;19.12;55.22;101428.28;5018742;28;8850;-67
2022/06/22 08:38:05;;;;;;;;;5.00;5.00;;;;;19.15;55.25;101441.47;5023432;28;8848;-67
2022/06/22 08:40:55;;;;;;;;;7.50;6.00;;;;;19.20;55.39;101445.19;5017982;28;8818;-66
2022/06/22 08:43:38;;;;;;;;;6.75;6.00;;;;;19.21;55.38;101444.09;5022997;28;8809;-65
2022/06/22 08:46:38;;;;;;;;;8.50;7.00;;;;;19.20;54.97;101442.44;5028547;28;8872;-65
2022/06/22 08:49:39;;;;;;;;;8.00;7.25;;;;;19.19;55.45;101445.41;5022529;28;8914;-66
2022/06/22 08:52:36;;;;;;;;;7.00;7.00;;;;;19.26;55.46;101446.13;5023372;28;8812;-66
2022/06/22 08:56:02;;;;;;;;;6.00;6.00;;;;;19.35;55.62;101438.41;5025675;28;8850;-66
2022/06/22 08:58:59;;;;;;;;;4.75;4.75;;;;;19.47;55.39;101452.88;5022620;28;8829;-66
2022/06/22 09:01:55;;;;;;;;;7.25;6.50;;;;;19.60;55.24;101452.63;5030828;28;8825;-66
2022/06/22 09:04:37;;;;;;;;;7.50;7.50;;;;;19.66;54.83;101451.69;5030710;28;8947;-66
2022/06/22 09:07:26;;;;;;;;;5.25;5.25;;;;;19.64;54.58;101462.03;5030693;28;8855;-65
2022/06/22 09:10:21;;;;;;;;;6.75;6.00;;;;;19.55;54.73;101460.69;5031229;28;8891;-66
2022/06/22 09:13:16;;;;;;;;;7.50;6.00;;;;;19.63;54.74;101463.09;5011000;28;8909;-66
2022/06/22 09:16:06;;;;;;;;;6.00;6.00;;;;;19.61;53.98;101464.41;5022451;28;8871;-64
2022/06/22 09:18:59;;;;;;;;;7.75;6.75;;;;;19.59;54.58;101472.81;5020175;28;8837;-66
2022/06/22 09:21:49;;;;;;;;;4.25;4.25;;;;;19.73;54.49;101471.53;5023341;28;8829;-65
2022/06/22 09:24:38;;;;;;;;;8.00;7.00;;;;;19.76;53.84;101468.28;5030581;28;8841;-64
2022/06/22 09:27:19;;;;;;;;;9.00;7.75;;;;;19.80;53.48;101476.84;5031059;28;8830;-65
2022/06/22 09:30:20;;;;;;;;;4.25;3.25;;;;;19.85;53.36;101478.84;5030653;28;8825;-65
2022/06/22 09:33:16;;;;;;;;;4.00;4.00;;;;;19.89;53.56;101471.84;5025556;28;8836;-64
2022/06/22 09:36:06;;;;;;;;;6.50;6.50;;;;;19.90;53.71;101466.16;5030934;28;8813;-65
2022/06/22 09:38:55;;;;;;;;;5.25;4.25;;;;;19.94;53.34;101466.50;5029394;28;8940;-65
2022/06/22 09:41:27;;;;;;;;;5.00;5.00;;;;;20.06;52.52;101478.22;5030738;28;8845;-64
2022/06/22 09:44:12;;;;;;;;;6.50;6.00;;;;;20.12;51.78;101482.72;5030774;28;8924;-65
2022/06/22 09:47:06;;;;;;;;;4.50;4.50;;;;;20.09;51.86;101475.00;5029928;28;8841;-65
2022/06/22 09:49:52;;;;;;;;;2.75;2.75;;;;;20.11;52.19;101470.13;5030935;28;8833;-65
2022/06/22 09:52:28;;;;;;;;;4.75;4.75;;;;;20.20;51.08;101470.56;5030452;28;8891;-65
2022/06/22 09:58:27;;;;;;;;;3.75;3.75;;;;;20.17;49.76;101469.16;5029929;28;8813;-66
2022/06/22 10:01:09;;;;;;;;;3.50;3.50;;;;;20.16;49.29;101470.22;5029834;28;8821;-66
2022/06/22 10:04:03;;;;;;;;;3.50;2.50;;;;;20.13;48.69;101473.44;5030540;28;8813;-65
2022/06/22 10:06:37;;;;;;;;;3.75;3.75;;;;;20.15;48.57;101468.56;5029818;28;8907;-66
2022/06/22 10:09:26;;;;;;;;;3.75;3.75;;;;;20.09;48.20;101464.06;5029829;28;8829;-66
2022/06/22 10:12:28;;;;;;;;;2.75;2.00;;;;;20.21;48.78;101459.38;5029519;28;8841;-65
2022/06/22 10:15:35;;;;;;;;;2.75;2.75;;;;;20.38;45.95;101454.00;5060745;23;8993;-61
2022/06/22 10:18:29;;;;;;;;;4.00;4.00;;;;;20.39;47.94;101443.88;5012621;28;8829;-64
2022/06/22 10:21:02;;;;;;;;;3.00;1.00;;;;;20.48;47.26;101447.88;5017878;28;8817;-64
2022/06/22 10:24:11;;;;;;;;;3.25;3.25;;;;;20.59;45.97;101446.19;5029795;28;9585;-65
2022/06/22 10:27:07;;;;;;;;;2.00;2.00;;;;;20.65;45.80;101435.06;5009852;28;8823;-62
2022/06/22 10:29:37;;;;;;;;;2.00;2.00;;;;;20.63;44.37;101437.25;5008647;28;8838;-65
2022/06/22 10:32:25;;;;;;;;;2.00;2.00;;;;;20.71;46.69;101434.09;4971699;28;8845;-65
2022/06/22 10:35:26;;;;;;;;;5.25;5.00;;;;;20.78;47.78;101453.06;4990103;28;8833;-65
2022/06/22 10:38:07;;;;;;;;;4.50;3.50;;;;;20.80;46.03;101450.13;4989802;28;9641;-65
2022/06/22 10:47:55;;;;;;;;;1.75;1.75;;;;;20.90;45.98;101444.78;5007837;28;8819;-65
2022/06/22 10:50:43;;;;;;;;;1.00;1.00;;;;;20.89;44.31;101443.13;5009014;28;8829;-65
2022/06/22 10:53:49;;;;;;;;;2.25;2.00;;;;;20.93;44.95;101449.78;4993649;28;8810;-66
2022/06/22 10:56:48;;;;;;;;;1.50;1.50;;;;;21.02;46.21;101447.44;4993528;28;9576;-65
2022/06/22 10:59:41;;;;;;;;;2.50;2.50;;;;;20.99;45.25;101448.81;4993799;28;8826;-65
2022/06/22 11:03:03;;;;;;;;;3.50;3.00;;;;;21.06;45.33;101443.13;4974130;28;8961;-65
2022/06/22 11:05:54;;;;;;;;;1.50;1.50;;;;;21.09;45.03;101442.66;4960842;28;8880;-65
2022/06/22 11:08:57;;;;;;;;;1.00;1.00;;;;;20.97;42.63;101440.81;4993181;28;8915;-65
2022/06/22 11:11:36;;;;;;;;;1.00;1.00;;;;;20.98;41.46;101442.50;5004318;28;8839;-65
2022/06/22 11:14:23;;;;;;;;;1.00;1.00;;;;;20.98;39.88;101447.13;4995028;28;8857;-65
2022/06/22 11:17:05;;;;;;;;;1.00;1.00;;;;;20.97;39.40;101435.34;4981833;28;8855;-65
2022/06/22 11:19:53;;;;;;;;;1.00;1.00;;;;;20.97;39.80;101431.78;4974040;28;8823;-64
2022/06/22 11:22:46;;;;;;;;;0.00;0.00;;;;;21.03;40.30;101430.81;5011837;28;8820;-65
2022/06/22 11:31:59;;;;;;;;;1.00;1.00;;;;;21.05;36.23;101422.31;5002045;28;9004;-65
2022/06/22 11:35:03;;;;;;;;;1.00;1.00;;;;;20.99;35.60;101421.44;5012688;28;8946;-65
2022/06/22 11:37:37;;;;;;;;;1.00;1.00;;;;;21.06;33.42;101413.84;4973210;28;8889;-65
2022/06/22 11:40:35;;;;;;;;;1.00;1.00;;;;;21.14;36.91;101416.16;4977803;28;9597;-65
2022/06/22 11:43:46;;;;;;;;;1.25;1.25;;;;;21.16;38.72;101416.75;5012158;28;8897;-65
2022/06/22 11:46:22;;;;;;;;;2.00;2.00;;;;;21.23;37.74;101411.13;4963984;28;8865;-65
2022/06/22 11:49:13;;;;;;;;;1.00;1.00;;;;;21.24;37.39;101407.28;5012045;28;8858;-66
2022/06/22 11:52:03;;;;;;;;;0.75;0.75;;;;;21.38;37.71;101407.78;4998151;28;8923;-66
2022/06/22 11:54:50;;;;;;;;;1.00;1.00;;;;;21.52;36.01;101406.34;4991781;28;9611;-64
2022/06/22 11:57:42;;;;;;;;;1.75;1.75;;;;;21.56;35.32;101404.75;4993395;28;8827;-64
2022/06/22 12:00:21;;;;;;;;;1.00;1.00;;;;;21.59;33.06;101398.78;5011178;28;8839;-65
2022/06/22 12:03:02;;;;;;;;;0.00;0.00;;;;;21.62;30.98;101395.50;4993022;28;8822;-65
2022/06/22 12:05:52;;;;;;;;;0.00;0.00;;;;;21.75;31.12;101394.28;4975092;28;8967;-65
2022/06/22 12:08:59;;;;;;;;;0.00;0.00;;;;;21.82;29.35;101391.38;4992469;28;8813;-64
2022/06/22 12:11:50;;;;;;;;;1.00;1.00;;;;;21.81;30.40;101387.81;5002435;28;8823;-64
2022/06/22 12:17:23;;;;;;;;;0.50;0.50;;;;;22.09;32.15;101396.91;4995160;28;8813;-64
2022/06/22 12:20:12;;;;;;;;;0.00;0.00;;;;;22.19;28.07;101397.03;4984737;28;9011;-64
2022/06/22 12:23:01;;;;;;;;;0.00;0.00;;;;;22.28;27.85;101392.75;5002099;28;9492;-63
2022/06/22 12:25:49;;;;;;;;;0.00;0.00;;;;;22.37;29.23;101380.22;4993850;28;8826;-64
2022/06/22 12:28:22;;;;;;;;;0.00;0.00;;;;;22.40;28.29;101381.59;4991952;28;9000;-64
2022/06/22 12:31:04;;;;;;;;;0.00;0.00;;;;;22.32;24.96;101377.44;5004945;28;8851;-64
2022/06/22 12:33:40;;;;;;;;;0.00;0.00;;;;;22.37;24.63;101385.69;4997330;28;9541;-65
2022/06/22 12:36:18;;;;;;;;;0.00;0.00;;;;;22.44;26.48;101382.72;4993213;28;8841;-64
2022/06/22 12:38:49;;;;;;;;;0.00;0.00;;;;;22.50;24.95;101375.38;4979292;28;8891;-64
2022/06/22 12:42:16;;;;;;;;;0.00;0.00;;;;;22.57;23.95;101382.31;4974820;28;8865;-64
2022/06/22 12:45:01;;;;;;;;;0.00;0.00;;;;;22.71;24.45;101383.53;4972291;28;8844;-63
2022/06/22 12:48:16;;;;;;;;;0.50;0.00;;;;;22.84;24.32;101386.91;4972271;28;8851;-64
2022/06/22 12:51:04;;;;;;;;;0.00;0.00;;;;;22.85;25.34;101380.31;4972321;28;8827;-65
2022/06/22 12:53:41;;;;;;;;;0.00;0.00;;;;;22.87;25.78;101378.16;4972235;28;8836;-63
2022/06/22 12:56:15;;;;;;;;;0.00;0.00;;;;;22.93;25.56;101374.41;4972524;28;8836;-64
2022/06/22 12:58:52;;;;;;;;;0.00;0.00;;;;;23.01;25.98;101375.81;4982299;28;8833;-64
2022/06/22 13:01:18;;;;;;;;;0.00;0.00;;;;;23.08;26.55;101368.16;4991107;28;8837;-64